createdAt,value
2019-01-21T18:48:49.574Z,22.10
2019-01-21T19:08:35.254Z,24.90
2019-01-21T19:35:44.344Z,21.20
2019-01-21T19:38:12.620Z,21.10
2019-01-21T19:40:40.959Z,22.40
2019-01-21T19:43:09.234Z,25.40
2019-01-21T19:45:37.799Z,22.80
2019-01-21T19:48:06.156Z,21.80
2019-01-21T19:50:34.425Z,21.30
2019-01-21T19:53:02.692Z,23.00
2019-01-21T19:55:34.138Z,22.70
2019-01-21T19:58:02.404Z,23.20
2019-01-21T20:00:31.045Z,23.60
2019-01-21T20:02:59.333Z,22.00
2019-01-21T20:05:27.643Z,21.30
2019-01-21T20:07:55.934Z,21.00
2019-01-21T20:10:24.882Z,20.80
2019-01-21T20:12:53.234Z,20.70
2019-01-21T20:15:21.513Z,20.60
2019-01-21T20:17:49.890Z,20.60
2019-01-21T20:20:23.459Z,20.60
2019-01-21T20:22:57.366Z,20.70
2019-01-21T20:25:21.754Z,20.80
2019-01-21T20:27:50.024Z,20.80
2019-01-21T20:30:23.363Z,20.80
2019-01-21T20:32:51.729Z,20.80
2019-01-21T20:35:20.007Z,20.80
2019-01-21T20:37:48.651Z,20.80
2019-01-21T20:40:19.966Z,20.70
2019-01-21T20:42:48.292Z,20.60
2019-01-21T20:45:16.564Z,20.60
2019-01-21T20:47:44.946Z,20.60
2019-01-21T20:50:18.718Z,20.50
2019-01-21T20:52:46.986Z,20.50
2019-01-21T20:55:15.836Z,20.50
2019-01-21T20:57:44.169Z,20.40
2019-01-21T21:00:18.287Z,20.50
2019-01-21T21:02:52.005Z,20.50
2019-01-21T21:05:20.423Z,20.60
2019-01-21T21:07:48.755Z,20.60
2019-01-21T21:10:17.113Z,20.70
2019-01-21T21:12:45.590Z,20.70
2019-01-21T21:15:22.679Z,20.70
2019-01-21T21:17:50.972Z,20.70
2019-01-21T21:20:19.395Z,20.60
2019-01-21T21:22:47.750Z,20.60
2019-01-21T21:25:18.133Z,20.50
2019-01-21T21:27:46.479Z,20.50
2019-01-21T21:30:26.798Z,20.50
2019-01-21T21:32:55.145Z,20.40
2019-01-21T21:35:23.792Z,20.50
2019-01-21T21:37:52.173Z,20.40
2019-01-21T21:40:21.762Z,20.40
2019-01-21T21:42:50.095Z,20.60
2019-01-21T21:45:20.209Z,20.60
2019-01-21T21:47:48.569Z,20.70
2019-01-21T21:50:22.486Z,20.60
2019-01-21T21:52:50.867Z,20.60
2019-01-21T21:55:19.203Z,20.50
2019-01-21T21:57:47.554Z,20.60
2019-01-21T22:00:27.425Z,20.50
2019-01-21T22:02:55.760Z,20.50
2019-01-21T22:05:24.110Z,20.40
2019-01-21T22:07:52.772Z,20.50
2019-01-21T22:10:26.368Z,20.40
2019-01-21T22:12:54.783Z,20.40
2019-01-21T22:15:24.196Z,20.40
2019-01-21T22:17:52.529Z,20.40
2019-01-21T22:20:22.513Z,20.30
2019-01-21T22:22:50.883Z,20.30
2019-01-21T22:25:19.522Z,20.30
2019-01-21T22:27:47.862Z,20.20
2019-01-21T22:30:21.695Z,20.20
2019-01-21T22:32:50.033Z,20.20
2019-01-21T22:35:18.376Z,20.20
2019-01-21T22:37:47.053Z,20.10
2019-01-21T22:40:17.444Z,20.10
2019-01-21T22:42:45.777Z,20.10
2019-01-21T22:45:15.416Z,20.10
2019-01-21T22:47:43.685Z,20.00
2019-01-21T22:50:14.066Z,20.00
2019-01-21T22:52:42.427Z,20.00
2019-01-21T22:55:14.949Z,20.00
2019-01-21T22:57:43.287Z,19.90
2019-01-21T23:00:31.103Z,19.80
2019-01-21T23:02:59.553Z,19.80
2019-01-21T23:05:27.836Z,19.80
2019-01-21T23:07:56.194Z,19.80
2019-01-21T23:10:24.755Z,19.80
2019-01-21T23:12:53.402Z,19.70
2019-01-21T23:15:21.693Z,19.70
2019-01-21T23:17:50.031Z,19.60
2019-01-21T23:20:18.368Z,19.60
2019-01-21T23:22:49.314Z,19.60
2019-01-21T23:25:17.001Z,19.60
2019-01-21T23:27:45.351Z,19.60
2019-01-21T23:30:16.760Z,19.50
2019-01-21T23:32:45.398Z,19.50
2019-01-21T23:35:13.747Z,19.50
2019-01-21T23:37:42.111Z,19.40
2019-01-21T23:40:11.506Z,19.40
2019-01-21T23:42:39.840Z,19.40
2019-01-21T23:45:11.736Z,19.40
2019-01-21T23:47:40.073Z,19.30
2019-01-21T23:50:13.817Z,19.30
2019-01-21T23:52:42.470Z,19.30
2019-01-21T23:55:11.875Z,19.30
2019-01-21T23:57:40.225Z,19.30
